Observation data for Spur on 04/23/2019      Previous  Date  Next       Current Mesonet Observations  Soil Data  Daily Summary Page  Observations in Plain Language
KSP1 230500Z 00008KT 16/14 A30 RMK A01 T01590138  RH  091%=      5-min Rain = 0.02
KSP1 230505Z 00009KT 16/14 A30 RMK A01 T01590138  RH  091%=      5-min Rain = 0
KSP1 230510Z 01007KT 16/14 A2999 RMK A01 T01590138  RH  091%=      5-min Rain = 0
KSP1 230515Z 01007KT 16/14 A30 RMK A01 T01590138  RH  091%=      5-min Rain = 0
KSP1 230520Z 00006KT 16/14 A30 RMK A01 T01590137  RH  091%=      5-min Rain = 0.01
KSP1 230525Z 00006KT 16/14 A30 RMK A01 T01580136  RH  091%=      5-min Rain = 0
KSP1 230530Z 34005KT 16/14 A30 RMK A01 T01570136  RH  091%=      5-min Rain = 0
KSP1 230535Z 36007KT 16/14 A30 RMK A01 T01570136  RH  091%=      5-min Rain = 0.01
KSP1 230540Z 35008KT 16/14 A3001 RMK A01 T01560135  RH  091%=      5-min Rain = 0.01
KSP1 230545Z 34009G14KT 16/13 A3001 RMK A01 T01560134  RH  091%=      5-min Rain = 0
KSP1 230550Z 34009G14KT 15/13 A3001 RMK A01 T01540133  RH  091%=      5-min Rain = 0.01
KSP1 230555Z 34008G13KT 15/13 A3001 RMK A01 T01520132  RH  092%=      5-min Rain = 0.01
KSP1 230600Z 36009G15KT 15/13 A3001 RMK A01 T01510132  RH  092%=      5-min Rain = 0
KSP1 230605Z 00010G16KT 15/13 A3001 RMK A01 T01490131  RH  092%=      5-min Rain = 0.01
KSP1 230610Z 01011G16KT 15/13 A3001 RMK A01 T01480130  RH  093%=      5-min Rain = 0.02
KSP1 230615Z 02012G18KT 15/13 A30 RMK A01 T01460129  RH  093%=      5-min Rain = 0.02
KSP1 230620Z 05012KT 15/13 A30 RMK A01 T01450128  RH  093%=      5-min Rain = 0.19
KSP1 230625Z 04015G20KT 14/13 A2998 RMK A01 T01440128  RH  094%=      5-min Rain = 0.03
KSP1 230630Z 03011KT 14/13 A2999 RMK A01 T01430128  RH  094%=      5-min Rain = 0
KSP1 230635Z 04009G18KT 14/13 A2999 RMK A01 T01430129  RH  095%=      5-min Rain = 0
KSP1 230640Z 02009KT 14/13 A2999 RMK A01 T01440129  RH  094%=      5-min Rain = 0
KSP1 230645Z 02009KT 14/13 A2999 RMK A01 T01440130  RH  095%=      5-min Rain = 0
KSP1 230650Z 01009KT 14/13 A2999 RMK A01 T01440129  RH  095%=      5-min Rain = 0
KSP1 230655Z 01009KT 14/13 A2999 RMK A01 T01430129  RH  095%=      5-min Rain = 0
KSP1 230700Z 01010G16KT 14/13 A2998 RMK A01 T01430128  RH  095%=      5-min Rain = 0
KSP1 230705Z 01011G16KT 14/13 A2998 RMK A01 T01420128  RH  095%=      5-min Rain = 0
KSP1 230710Z 02011G16KT 14/13 A2998 RMK A01 T01430128  RH  095%=      5-min Rain = 0
KSP1 230715Z 02010G15KT 14/13 A2998 RMK A01 T01430128  RH  094%=      5-min Rain = 0
KSP1 230720Z 02012KT 14/13 A2998 RMK A01 T01430128  RH  094%=      5-min Rain = 0
KSP1 230725Z 02011KT 14/13 A2998 RMK A01 T01440128  RH  094%=      5-min Rain = 0
KSP1 230730Z 02010G15KT 14/13 A2998 RMK A01 T01440128  RH  094%=      5-min Rain = 0
KSP1 230735Z 02011KT 14/13 A2998 RMK A01 T01440127  RH  093%=      5-min Rain = 0
KSP1 230740Z 02010KT 14/13 A2997 RMK A01 T01440127  RH  093%=      5-min Rain = 0
KSP1 230745Z 02010G16KT 14/13 A2997 RMK A01 T01440127  RH  093%=      5-min Rain = 0
KSP1 230750Z 02011G16KT 14/13 A2997 RMK A01 T01440127  RH  093%=      5-min Rain = 0
KSP1 230755Z 02011G16KT 14/13 A2997 RMK A01 T01440127  RH  093%=      5-min Rain = 0
KSP1 230800Z 02012KT 14/13 A2997 RMK A01 T01440126  RH  093%=      5-min Rain = 0
KSP1 230805Z 02011G16KT 14/13 A2997 RMK A01 T01440126  RH  093%=      5-min Rain = 0
KSP1 230810Z 02012KT 14/13 A2997 RMK A01 T01440126  RH  092%=      5-min Rain = 0
KSP1 230815Z 02009G14KT 14/13 A2997 RMK A01 T01440126  RH  092%=      5-min Rain = 0
KSP1 230820Z 02010G16KT 14/13 A2997 RMK A01 T01440126  RH  092%=      5-min Rain = 0
KSP1 230825Z 02010G15KT 14/13 A2998 RMK A01 T01440126  RH  092%=      5-min Rain = 0
KSP1 230830Z 02010G15KT 14/13 A2998 RMK A01 T01440126  RH  092%=      5-min Rain = 0
KSP1 230835Z 02007KT 14/13 A2998 RMK A01 T01440126  RH  092%=      5-min Rain = 0
KSP1 230840Z 36008KT 14/13 A2998 RMK A01 T01440126  RH  092%=      5-min Rain = 0
KSP1 230845Z 36004KT 14/13 A2998 RMK A01 T01440126  RH  092%=      5-min Rain = 0
KSP1 230850Z 36004KT 14/13 A2998 RMK A01 T01440126  RH  093%=      5-min Rain = 0
KSP1 230855Z 01005KT 14/13 A2997 RMK A01 T01440126  RH  093%=      5-min Rain = 0
KSP1 230900Z 03007KT 14/13 A2997 RMK A01 T01430126  RH  093%=      5-min Rain = 0
KSP1 230905Z 03008KT 14/13 A2996 RMK A01 T01430126  RH  093%=      5-min Rain = 0
KSP1 230910Z 04009G16KT 14/13 A2996 RMK A01 T01430126  RH  093%=      5-min Rain = 0
KSP1 230915Z 03009KT 14/13 A2996 RMK A01 T01430127  RH  094%=      5-min Rain = 0
KSP1 230920Z 04009KT 14/13 A2997 RMK A01 T01420127  RH  094%=      5-min Rain = 0
KSP1 230925Z 04012KT 14/13 A2997 RMK A01 T01420127  RH  094%=      5-min Rain = 0
KSP1 230930Z 04013KT 14/13 A2996 RMK A01 T01420127  RH  094%=      5-min Rain = 0
KSP1 230935Z 05010KT 14/13 A2997 RMK A01 T01420127  RH  095%=      5-min Rain = 0
KSP1 230940Z 06007KT 14/13 A2996 RMK A01 T01420128  RH  095%=      5-min Rain = 0
KSP1 230945Z 05008KT 14/13 A2996 RMK A01 T01420128  RH  095%=      5-min Rain = 0
KSP1 230950Z 05010KT 14/13 A2996 RMK A01 T01430129  RH  095%=      5-min Rain = 0
KSP1 230955Z 05011G16KT 14/13 A2996 RMK A01 T01430129  RH  095%=      5-min Rain = 0
KSP1 231000Z 05012G17KT 14/13 A2996 RMK A01 T01420129  RH  095%=      5-min Rain = 0
KSP1 231005Z 04010KT 14/13 A2996 RMK A01 T01420128  RH  095%=      5-min Rain = 0
KSP1 231010Z 04009KT 14/13 A2997 RMK A01 T01410127  RH  095%=      5-min Rain = 0
KSP1 231015Z 04008KT 14/13 A2997 RMK A01 T01410126  RH  095%=      5-min Rain = 0
KSP1 231020Z 04009KT 14/13 A2998 RMK A01 T01400125  RH  094%=      5-min Rain = 0
KSP1 231025Z 04005KT 14/13 A2998 RMK A01 T01400126  RH  094%=      5-min Rain = 0
KSP1 231030Z 05005KT 14/13 A2998 RMK A01 T01400125  RH  094%=      5-min Rain = 0
KSP1 231035Z 05005KT 14/13 A2998 RMK A01 T01400125  RH  094%=      5-min Rain = 0
KSP1 231040Z 05008KT 14/13 A2998 RMK A01 T01400126  RH  095%=      5-min Rain = 0
KSP1 231045Z 03008KT 14/13 A2999 RMK A01 T01400126  RH  095%=      5-min Rain = 0.03
KSP1 231050Z 34006KT 14/13 A3001 RMK A01 T01400126  RH  095%=      5-min Rain = 0.06
KSP1 231055Z 31009KT 14/13 A3002 RMK A01 T01390126  RH  095%=      5-min Rain = 0.04
KSP1 231100Z 34008KT 14/13 A30 RMK A01 T01390126  RH  095%=      5-min Rain = 0.06
KSP1 231105Z 06006KT 14/13 A2999 RMK A01 T01380125  RH  095%=      5-min Rain = 0
KSP1 231110Z 05005KT 14/13 A2999 RMK A01 T01380125  RH  096%=      5-min Rain = 0
KSP1 231115Z 04004KT 14/13 A30 RMK A01 T01380125  RH  096%=      5-min Rain = 0
KSP1 231120Z 04006KT 14/13 A2999 RMK A01 T01380125  RH  096%=      5-min Rain = 0
KSP1 231125Z 05006KT 14/13 A2999 RMK A01 T01380125  RH  096%=      5-min Rain = 0
KSP1 231130Z 04006KT 14/13 A30 RMK A01 T01380125  RH  096%=      5-min Rain = 0
KSP1 231135Z 05005KT 14/13 A2999 RMK A01 T01380126  RH  096%=      5-min Rain = 0
KSP1 231140Z 04002KT 14/13 A30 RMK A01 T01380125  RH  096%=      5-min Rain = 0.01
KSP1 231145Z 01003KT 14/13 A30 RMK A01 T01370125  RH  096%=      5-min Rain = 0
KSP1 231150Z 04002KT 14/13 A30 RMK A01 T01370125  RH  096%=      5-min Rain = 0
KSP1 231155Z 04003KT 14/13 A30 RMK A01 T01370125  RH  096%=      5-min Rain = 0
KSP1 231200Z 03004KT 14/13 A30 RMK A01 T01370125  RH  096%=      5-min Rain = 0
KSP1 231205Z 03006KT 14/13 A30 RMK A01 T01370125  RH  096%=      5-min Rain = 0
KSP1 231210Z 04006KT 14/13 A30 RMK A01 T01370125  RH  096%=      5-min Rain = 0
KSP1 231215Z 04006KT 14/13 A2999 RMK A01 T01370125  RH  096%=      5-min Rain = 0
KSP1 231220Z 03006KT 14/13 A30 RMK A01 T01370125  RH  096%=      5-min Rain = 0
KSP1 231225Z 04004KT 14/13 A30 RMK A01 T01380126  RH  096%=      5-min Rain = 0
KSP1 231230Z 03004KT 14/13 A30 RMK A01 T01380126  RH  096%=      5-min Rain = 0
KSP1 231235Z 04005KT 14/13 A3001 RMK A01 T01380126  RH  096%=      5-min Rain = 0
KSP1 231240Z 06005KT 14/13 A3001 RMK A01 T01390126  RH  096%=      5-min Rain = 0
KSP1 231245Z 05006KT 14/13 A3001 RMK A01 T01390127  RH  096%=      5-min Rain = 0
KSP1 231250Z 03006KT 14/13 A3001 RMK A01 T01400127  RH  096%=      5-min Rain = 0
KSP1 231255Z 04006KT 14/13 A3001 RMK A01 T01400127  RH  096%=      5-min Rain = 0
KSP1 231300Z 05005KT 14/13 A3001 RMK A01 T01400128  RH  096%=      5-min Rain = 0
KSP1 231305Z 04005KT 14/13 A3002 RMK A01 T01400128  RH  096%=      5-min Rain = 0
KSP1 231310Z 04005KT 14/13 A3001 RMK A01 T01410128  RH  096%=      5-min Rain = 0
KSP1 231315Z 04005KT 14/13 A3002 RMK A01 T01410128  RH  096%=      5-min Rain = 0
KSP1 231320Z 03004KT 14/13 A3003 RMK A01 T01410128  RH  096%=      5-min Rain = 0
KSP1 231325Z 03003KT 14/13 A3003 RMK A01 T01410129  RH  096%=      5-min Rain = 0
KSP1 231330Z 36005KT 14/13 A3004 RMK A01 T01420129  RH  096%=      5-min Rain = 0
KSP1 231335Z 34005KT 14/13 A3004 RMK A01 T01420129  RH  096%=      5-min Rain = 0
KSP1 231340Z 34006KT 14/13 A3005 RMK A01 T01420129  RH  096%=      5-min Rain = 0
KSP1 231345Z 01008KT 14/13 A3003 RMK A01 T01420128  RH  095%=      5-min Rain = 0
KSP1 231350Z 04008KT 14/13 A3003 RMK A01 T01410128  RH  095%=      5-min Rain = 0
KSP1 231355Z 04010KT 14/13 A3002 RMK A01 T01410128  RH  095%=      5-min Rain = 0
KSP1 231400Z 04009KT 14/13 A3001 RMK A01 T01410128  RH  095%=      5-min Rain = 0.01
KSP1 231405Z 04008G13KT 14/13 A3002 RMK A01 T01410128  RH  095%=      5-min Rain = 0
KSP1 231410Z 02004KT 14/13 A3004 RMK A01 T01410128  RH  095%=      5-min Rain = 0
KSP1 231415Z 33002KT 14/13 A3006 RMK A01 T01410128  RH  095%=      5-min Rain = 0
KSP1 231420Z 32001KT 14/13 A3006 RMK A01 T01410128  RH  095%=      5-min Rain = 0
KSP1 231425Z 25002KT 14/13 A3007 RMK A01 T01420129  RH  096%=      5-min Rain = 0
KSP1 231430Z 25003KT 14/13 A3008 RMK A01 T01430130  RH  096%=      5-min Rain = 0
KSP1 231435Z 29002KT 14/13 A3008 RMK A01 T01430129  RH  095%=      5-min Rain = 0.01
KSP1 231440Z 32003KT 14/13 A3008 RMK A01 T01420129  RH  095%=      5-min Rain = 0
KSP1 231445Z 34005KT 14/13 A3007 RMK A01 T01420129  RH  095%=      5-min Rain = 0.01
KSP1 231450Z 02005KT 14/13 A3006 RMK A01 T01420129  RH  095%=      5-min Rain = 0.02
KSP1 231455Z 03006KT 14/13 A3006 RMK A01 T01410128  RH  096%=      5-min Rain = 0.01
KSP1 231500Z 03008KT 14/13 A3005 RMK A01 T01410128  RH  096%=      5-min Rain = 0.01
KSP1 231505Z 04011KT 14/13 A3004 RMK A01 T01410128  RH  096%=      5-min Rain = 0.02
KSP1 231510Z 04012KT 14/13 A3004 RMK A01 T01400128  RH  096%=      5-min Rain = 0.01
KSP1 231515Z 04012KT 14/13 A3003 RMK A01 T01400128  RH  096%=      5-min Rain = 0.01
KSP1 231520Z 06014G19KT 14/13 A3001 RMK A01 T01400127  RH  096%=      5-min Rain = 0
KSP1 231525Z 07014KT 14/13 A30 RMK A01 T01400127  RH  096%=      5-min Rain = 0.01
KSP1 231530Z 05012G17KT 14/13 A3001 RMK A01 T01400127  RH  096%=      5-min Rain = 0.01
KSP1 231535Z 06010G16KT 14/13 A3002 RMK A01 T01400127  RH  096%=      5-min Rain = 0
KSP1 231540Z 05011KT 14/13 A3002 RMK A01 T01400127  RH  096%=      5-min Rain = 0
KSP1 231545Z 04011KT 14/13 A3002 RMK A01 T01400128  RH  096%=      5-min Rain = 0
KSP1 231550Z 06009KT 14/13 A3003 RMK A01 T01410128  RH  096%=      5-min Rain = 0
KSP1 231555Z 08007KT 14/13 A3004 RMK A01 T01410128  RH  096%=      5-min Rain = 0
KSP1 231600Z 07008KT 14/13 A3004 RMK A01 T01410128  RH  095%=      5-min Rain = 0
KSP1 231605Z 07007G13KT 14/13 A3004 RMK A01 T01410128  RH  095%=      5-min Rain = 0
KSP1 231610Z 08008G13KT 14/13 A3004 RMK A01 T01410127  RH  095%=      5-min Rain = 0
KSP1 231615Z 07013KT 14/13 A3001 RMK A01 T01410127  RH  095%=      5-min Rain = 0.01
KSP1 231620Z 02009KT 14/13 A3002 RMK A01 T01420129  RH  095%=      5-min Rain = 0.01
KSP1 231625Z 05008KT 15/13 A3002 RMK A01 T01470134  RH  096%=      5-min Rain = 0
KSP1 231630Z 04013G18KT 15/14 A3001 RMK A01 T01520139  RH  096%=      5-min Rain = 0
KSP1 231635Z 02014G20KT 15/14 A30 RMK A01 T01540139  RH  095%=      5-min Rain = 0
KSP1 231640Z 03010G16KT 16/14 A30 RMK A01 T01560141  RH  094%=      5-min Rain = 0
KSP1 231645Z 04011G16KT 16/14 A3001 RMK A01 T01590142  RH  093%=      5-min Rain = 0
KSP1 231650Z 05011G17KT 16/14 A3002 RMK A01 T01580137  RH  091%=      5-min Rain = 0
KSP1 231655Z 03010KT 16/14 A3003 RMK A01 T01570135  RH  090%=      5-min Rain = 0
KSP1 231700Z 04010KT 16/14 A3003 RMK A01 T01600137  RH  090%=      5-min Rain = 0
KSP1 231705Z 04010KT 16/13 A3003 RMK A01 T01590134  RH  089%=      5-min Rain = 0
KSP1 231710Z 06010KT 16/13 A3003 RMK A01 T01590133  RH  088%=      5-min Rain = 0
KSP1 231715Z 04009KT 16/13 A3004 RMK A01 T01590131  RH  087%=      5-min Rain = 0
KSP1 231720Z 04008KT 16/13 A3004 RMK A01 T01610133  RH  087%=      5-min Rain = 0
KSP1 231725Z 04009KT 16/13 A3003 RMK A01 T01630132  RH  086%=      5-min Rain = 0
KSP1 231730Z 04009KT 16/13 A3003 RMK A01 T01620130  RH  085%=      5-min Rain = 0
KSP1 231735Z 04008KT 16/13 A3003 RMK A01 T01640131  RH  084%=      5-min Rain = 0
KSP1 231740Z 04008KT 17/13 A3004 RMK A01 T01660132  RH  084%=      5-min Rain = 0
KSP1 231745Z 05007KT 17/13 A3004 RMK A01 T01670129  RH  082%=      5-min Rain = 0
KSP1 231750Z 07006KT 17/13 A3004 RMK A01 T01660129  RH  082%=      5-min Rain = 0
KSP1 231755Z 07006KT 17/13 A3004 RMK A01 T01670131  RH  082%=      5-min Rain = 0
KSP1 231800Z 07007KT 17/13 A3004 RMK A01 T01680129  RH  081%=      5-min Rain = 0
KSP1 231805Z 07008KT 17/13 A3003 RMK A01 T01710130  RH  080%=      5-min Rain = 0
KSP1 231810Z 07008KT 18/13 A3003 RMK A01 T01780134  RH  079%=      5-min Rain = 0
KSP1 231815Z 08007KT 18/13 A3003 RMK A01 T01790133  RH  078%=      5-min Rain = 0
KSP1 231820Z 05007KT 19/14 A3003 RMK A01 T01850140  RH  079%=      5-min Rain = 0
KSP1 231825Z 05008KT 18/13 A3003 RMK A01 T01820133  RH  076%=      5-min Rain = 0
KSP1 231830Z 05007KT 18/14 A3003 RMK A01 T01810135  RH  078%=      5-min Rain = 0
KSP1 231835Z 05008KT 18/13 A3003 RMK A01 T01810133  RH  077%=      5-min Rain = 0
KSP1 231840Z 05008KT 18/14 A3003 RMK A01 T01840135  RH  076%=      5-min Rain = 0
KSP1 231845Z 06006G11KT 19/14 A3003 RMK A01 T01880140  RH  076%=      5-min Rain = 0
KSP1 231850Z 07007KT 18/13 A3003 RMK A01 T01830131  RH  075%=      5-min Rain = 0
KSP1 231855Z 07007KT 18/13 A3003 RMK A01 T01790129  RH  075%=      5-min Rain = 0
KSP1 231900Z 07007KT 18/13 A3002 RMK A01 T01770127  RH  075%=      5-min Rain = 0
KSP1 231905Z 09007KT 18/13 A3002 RMK A01 T01780127  RH  075%=      5-min Rain = 0
KSP1 231910Z 06008KT 18/13 A3002 RMK A01 T01790128  RH  075%=      5-min Rain = 0
KSP1 231915Z 07008KT 18/13 A3002 RMK A01 T01790129  RH  075%=      5-min Rain = 0
KSP1 231920Z 09007KT 18/13 A3002 RMK A01 T01810129  RH  074%=      5-min Rain = 0
KSP1 231925Z 07007KT 18/13 A3002 RMK A01 T01800127  RH  074%=      5-min Rain = 0
KSP1 231930Z 06007KT 18/13 A3002 RMK A01 T01810127  RH  074%=      5-min Rain = 0
KSP1 231935Z 06007KT 18/13 A3001 RMK A01 T01810125  RH  073%=      5-min Rain = 0
KSP1 231940Z 07006KT 18/13 A3001 RMK A01 T01810126  RH  073%=      5-min Rain = 0
KSP1 231945Z 07007KT 18/13 A3001 RMK A01 T01820131  RH  075%=      5-min Rain = 0
KSP1 231950Z 06007KT 18/13 A3001 RMK A01 T01820131  RH  075%=      5-min Rain = 0
KSP1 231955Z 04009G14KT 18/13 A3002 RMK A01 T01800130  RH  076%=      5-min Rain = 0
KSP1 232000Z 03012KT 17/13 A3002 RMK A01 T01710131  RH  080%=      5-min Rain = 0
KSP1 232005Z 03013KT 17/13 A3002 RMK A01 T01660130  RH  082%=      5-min Rain = 0
KSP1 232010Z 03011KT 17/13 A3002 RMK A01 T01650131  RH  083%=      5-min Rain = 0
KSP1 232015Z 02012KT 17/13 A3002 RMK A01 T01650130  RH  083%=      5-min Rain = 0
KSP1 232020Z 02013G18KT 16/13 A3002 RMK A01 T01600128  RH  084%=      5-min Rain = 0
KSP1 232025Z 02013KT 16/13 A3002 RMK A01 T01580128  RH  086%=      5-min Rain = 0
KSP1 232030Z 02013G18KT 16/13 A3002 RMK A01 T01570126  RH  085%=      5-min Rain = 0
KSP1 232035Z 02013G18KT 15/12 A3002 RMK A01 T01530124  RH  086%=      5-min Rain = 0
KSP1 232040Z 02012G18KT 15/12 A3002 RMK A01 T01520124  RH  087%=      5-min Rain = 0
KSP1 232045Z 02014KT 15/12 A3002 RMK A01 T01500121  RH  086%=      5-min Rain = 0
KSP1 232050Z 02013KT 15/12 A3001 RMK A01 T01490121  RH  087%=      5-min Rain = 0
KSP1 232055Z 02012G17KT 15/12 A3001 RMK A01 T01490122  RH  087%=      5-min Rain = 0
KSP1 232100Z 03013KT 15/12 A3001 RMK A01 T01490121  RH  086%=      5-min Rain = 0
KSP1 232105Z 02012KT 15/12 A3001 RMK A01 T01470120  RH  087%=      5-min Rain = 0
KSP1 232110Z 03012KT 15/12 A3001 RMK A01 T01450119  RH  088%=      5-min Rain = 0
KSP1 232115Z 03012KT 14/12 A3001 RMK A01 T01440119  RH  088%=      5-min Rain = 0
KSP1 232120Z 03012KT 14/12 A3001 RMK A01 T01430118  RH  088%=      5-min Rain = 0
KSP1 232125Z 02013KT 14/12 A30 RMK A01 T01420118  RH  088%=      5-min Rain = 0
KSP1 232130Z 02011G16KT 14/12 A30 RMK A01 T01420118  RH  089%=      5-min Rain = 0
KSP1 232135Z 02012G17KT 14/12 A30 RMK A01 T01410117  RH  089%=      5-min Rain = 0
KSP1 232140Z 02013G18KT 14/12 A30 RMK A01 T01410117  RH  089%=      5-min Rain = 0
KSP1 232145Z 02014G19KT 14/12 A30 RMK A01 T01410116  RH  089%=      5-min Rain = 0
KSP1 232150Z 03013KT 14/12 A30 RMK A01 T01400116  RH  089%=      5-min Rain = 0
KSP1 232155Z 02012G17KT 14/12 A2999 RMK A01 T01410117  RH  089%=      5-min Rain = 0
KSP1 232200Z 02013G18KT 14/12 A2999 RMK A01 T01400116  RH  089%=      5-min Rain = 0
KSP1 232205Z 02015G20KT 14/12 A2999 RMK A01 T01400115  RH  088%=      5-min Rain = 0
KSP1 232210Z 02013G18KT 14/12 A2999 RMK A01 T01390115  RH  089%=      5-min Rain = 0
KSP1 232215Z 01013G18KT 14/12 A2999 RMK A01 T01380115  RH  089%=      5-min Rain = 0
KSP1 232220Z 01012G17KT 14/11 A30 RMK A01 T01360114  RH  090%=      5-min Rain = 0
KSP1 232225Z 02011KT 14/12 A30 RMK A01 T01360115  RH  091%=      5-min Rain = 0
KSP1 232230Z 02013G18KT 14/12 A2999 RMK A01 T01360115  RH  090%=      5-min Rain = 0
KSP1 232235Z 02012G18KT 14/12 A30 RMK A01 T01360115  RH  090%=      5-min Rain = 0
KSP1 232240Z 02010KT 14/12 A30 RMK A01 T01370115  RH  090%=      5-min Rain = 0
KSP1 232245Z 03010G16KT 14/12 A30 RMK A01 T01380115  RH  090%=      5-min Rain = 0
KSP1 232250Z 03012KT 14/12 A2999 RMK A01 T01380115  RH  089%=      5-min Rain = 0
KSP1 232255Z 02012KT 14/12 A2999 RMK A01 T01380115  RH  089%=      5-min Rain = 0
KSP1 232300Z 02013KT 14/12 A2999 RMK A01 T01380115  RH  090%=      5-min Rain = 0
KSP1 232305Z 03013KT 14/12 A2999 RMK A01 T01370115  RH  089%=      5-min Rain = 0
KSP1 232310Z 02012G19KT 14/12 A2998 RMK A01 T01370115  RH  090%=      5-min Rain = 0
KSP1 232315Z 02013G19KT 14/12 A2998 RMK A01 T01360115  RH  090%=      5-min Rain = 0
KSP1 232320Z 02013KT 14/11 A2998 RMK A01 T01360114  RH  090%=      5-min Rain = 0
KSP1 232325Z 02011G16KT 14/12 A2998 RMK A01 T01370116  RH  090%=      5-min Rain = 0
KSP1 232330Z 02011G16KT 14/12 A2999 RMK A01 T01380116  RH  090%=      5-min Rain = 0
KSP1 232335Z 03009G14KT 14/12 A2999 RMK A01 T01390117  RH  090%=      5-min Rain = 0
KSP1 232340Z 02012KT 14/12 A2999 RMK A01 T01390115  RH  089%=      5-min Rain = 0
KSP1 232345Z 04011KT 14/11 A2999 RMK A01 T01380114  RH  089%=      5-min Rain = 0
KSP1 232350Z 04009KT 14/11 A2999 RMK A01 T01390114  RH  088%=      5-min Rain = 0
KSP1 232355Z 03011KT 14/11 A2999 RMK A01 T01390114  RH  088%=      5-min Rain = 0
KSP1 240000Z 03011KT 14/11 A2998 RMK A01 T01390113  RH  088%=      5-min Rain = 0
KSP1 240005Z 02010KT 14/11 A2998 RMK A01 T01400114  RH  087%=      5-min Rain = 0
KSP1 240010Z 02011G16KT 14/11 A2997 RMK A01 T01410114  RH  087%=      5-min Rain = 0
KSP1 240015Z 02012KT 14/11 A2997 RMK A01 T01420114  RH  086%=      5-min Rain = 0
KSP1 240020Z 02009G15KT 14/12 A2997 RMK A01 T01430115  RH  086%=      5-min Rain = 0
KSP1 240025Z 03009KT 14/12 A2998 RMK A01 T01430115  RH  086%=      5-min Rain = 0
KSP1 240030Z 03011KT 14/11 A2998 RMK A01 T01420113  RH  086%=      5-min Rain = 0
KSP1 240035Z 03010KT 14/11 A2998 RMK A01 T01420113  RH  086%=      5-min Rain = 0
KSP1 240040Z 03009KT 14/11 A2998 RMK A01 T01420112  RH  085%=      5-min Rain = 0
KSP1 240045Z 04008KT 14/11 A2999 RMK A01 T01420113  RH  086%=      5-min Rain = 0
KSP1 240050Z 04010KT 14/11 A30 RMK A01 T01420112  RH  085%=      5-min Rain = 0
KSP1 240055Z 04008G13KT 14/11 A3001 RMK A01 T01410112  RH  086%=      5-min Rain = 0
KSP1 240100Z 03009KT 14/11 A30 RMK A01 T01410112  RH  086%=      5-min Rain = 0
KSP1 240105Z 03009KT 14/11 A30 RMK A01 T01410112  RH  086%=      5-min Rain = 0
KSP1 240110Z 02012KT 14/11 A2999 RMK A01 T01410111  RH  086%=      5-min Rain = 0
KSP1 240115Z 02013KT 14/11 A2999 RMK A01 T01400111  RH  086%=      5-min Rain = 0
KSP1 240120Z 02010G15KT 14/11 A2999 RMK A01 T01400111  RH  086%=      5-min Rain = 0
KSP1 240125Z 02009G14KT 14/11 A2999 RMK A01 T01400112  RH  086%=      5-min Rain = 0
KSP1 240130Z 02010KT 14/11 A2999 RMK A01 T01390112  RH  086%=      5-min Rain = 0
KSP1 240135Z 02010KT 14/11 A2998 RMK A01 T01390112  RH  087%=      5-min Rain = 0
KSP1 240140Z 01009G14KT 14/11 A2998 RMK A01 T01380112  RH  087%=      5-min Rain = 0
KSP1 240145Z 02007KT 14/11 A2998 RMK A01 T01370112  RH  088%=      5-min Rain = 0
KSP1 240150Z 02009KT 14/11 A2997 RMK A01 T01360112  RH  088%=      5-min Rain = 0
KSP1 240155Z 02008KT 14/11 A2997 RMK A01 T01360112  RH  089%=      5-min Rain = 0
KSP1 240200Z 03007KT 14/11 A2997 RMK A01 T01350112  RH  089%=      5-min Rain = 0
KSP1 240205Z 05006KT 14/11 A2998 RMK A01 T01350113  RH  090%=      5-min Rain = 0
KSP1 240210Z 06005KT 14/11 A2999 RMK A01 T01350114  RH  090%=      5-min Rain = 0
KSP1 240215Z 06005KT 14/11 A30 RMK A01 T01360114  RH  090%=      5-min Rain = 0
KSP1 240220Z 06004KT 14/11 A30 RMK A01 T01360114  RH  090%=      5-min Rain = 0
KSP1 240225Z 05004KT 14/11 A30 RMK A01 T01360114  RH  090%=      5-min Rain = 0
KSP1 240230Z 03005KT 14/12 A30 RMK A01 T01370115  RH  090%=      5-min Rain = 0
KSP1 240235Z 03005KT 14/11 A30 RMK A01 T01370114  RH  090%=      5-min Rain = 0
KSP1 240240Z 04005KT 14/12 A30 RMK A01 T01370115  RH  090%=      5-min Rain = 0
KSP1 240245Z 04005KT 14/12 A30 RMK A01 T01370115  RH  090%=      5-min Rain = 0
KSP1 240250Z 03004KT 14/12 A30 RMK A01 T01370115  RH  090%=      5-min Rain = 0
KSP1 240255Z 02005KT 14/12 A30 RMK A01 T01360115  RH  090%=      5-min Rain = 0
KSP1 240300Z 03006KT 14/11 A30 RMK A01 T01360114  RH  090%=      5-min Rain = 0
KSP1 240305Z 03005KT 14/11 A3001 RMK A01 T01360114  RH  090%=      5-min Rain = 0
KSP1 240310Z 03007KT 14/11 A30 RMK A01 T01360114  RH  090%=      5-min Rain = 0
KSP1 240315Z 04008KT 14/11 A2999 RMK A01 T01360114  RH  090%=      5-min Rain = 0
KSP1 240320Z 04007KT 14/11 A30 RMK A01 T01350114  RH  090%=      5-min Rain = 0
KSP1 240325Z 04006KT 14/11 A3001 RMK A01 T01350114  RH  090%=      5-min Rain = 0
KSP1 240330Z 05005KT 13/11 A3002 RMK A01 T01340114  RH  090%=      5-min Rain = 0
KSP1 240335Z 03005KT 13/11 A3001 RMK A01 T01340113  RH  090%=      5-min Rain = 0
KSP1 240340Z 01006KT 13/11 A3001 RMK A01 T01330113  RH  091%=      5-min Rain = 0
KSP1 240345Z 01005KT 13/11 A30 RMK A01 T01330112  RH  091%=      5-min Rain = 0
KSP1 240350Z 01005KT 13/11 A30 RMK A01 T01320112  RH  091%=      5-min Rain = 0
KSP1 240355Z 02004KT 13/11 A3001 RMK A01 T01320112  RH  091%=      5-min Rain = 0
KSP1 240400Z 02004KT 13/11 A3002 RMK A01 T01320112  RH  091%=      5-min Rain = 0
KSP1 240405Z 02005KT 13/11 A3002 RMK A01 T01320112  RH  091%=      5-min Rain = 0
KSP1 240410Z 02004KT 13/11 A3002 RMK A01 T01310112  RH  091%=      5-min Rain = 0
KSP1 240415Z 02003KT 13/11 A3003 RMK A01 T01310111  RH  091%=      5-min Rain = 0
KSP1 240420Z 02002KT 13/11 A3003 RMK A01 T01310111  RH  091%=      5-min Rain = 0
KSP1 240425Z 01001KT 13/11 A3004 RMK A01 T01300111  RH  091%=      5-min Rain = 0
KSP1 240430Z 01001KT 13/11 A3004 RMK A01 T01310111  RH  091%=      5-min Rain = 0
KSP1 240435Z 02001KT 13/11 A3003 RMK A01 T01300111  RH  091%=      5-min Rain = 0
KSP1 240440Z 04001KT 13/11 A3003 RMK A01 T01300111  RH  091%=      5-min Rain = 0
KSP1 240445Z 06001KT 13/11 A3002 RMK A01 T01300111  RH  091%=      5-min Rain = 0
KSP1 240450Z 07001KT 13/11 A3002 RMK A01 T01300111  RH  091%=      5-min Rain = 0
KSP1 240455Z 06002KT 13/11 A3001 RMK A01 T01300111  RH  091%=      5-min Rain = 0

Page generated in 0.0145 seconds.